Time;durP1;ratioP1;P1;durP2;ratioP2;P2;SDS_P1;SDS_P2;PMS_P1;PMS_P2;Temp;Humidity;BMP_temperature;BMP_pressure;BME280_temperature;BME280_humidity;BME280_pressure;Samples;Min_cycle;Max_cycle;Signal;HPM_P1;HPM_P2
2022/12/03 00:02:01;;;;;;;;;;;;;;;6.07;56.84;102294.38;4956440;28;119752;-68
2022/12/03 00:04:28;;;;;;;;;;;;;;;6.07;57.08;102289.13;4960078;28;118857;-68
2022/12/03 00:06:55;;;;;;;;;;;;;;;6.07;56.98;102278.59;4959013;28;124174;-68
2022/12/03 00:09:22;;;;;;;;;;;;;;;6.09;57.09;102284.72;4963820;28;124265;-69
2022/12/03 00:11:49;;;;;;;;;;;;;;;6.07;56.86;102275.97;4951710;28;120356;-69
2022/12/03 00:14:16;;;;;;;;;;;;;;;6.06;57.15;102279.47;4941687;28;117852;-69
2022/12/03 00:16:43;;;;;;;;;;;;;;;6.07;56.98;102275.97;4952868;28;125093;-69
2022/12/03 00:19:10;;;;;;;;;;;;;;;6.08;56.94;102280.34;4955544;28;124014;-69
2022/12/03 00:21:36;;;;;;;;;;;;;;;6.08;56.96;102275.94;4942242;28;120328;-68
2022/12/03 00:24:03;;;;;;;;;;;;;;;6.09;56.97;102276.84;4958662;28;119673;-68
2022/12/03 00:26:30;;;;;;;;;;;;;;;6.09;57.29;102268.94;4958316;28;124857;-69
2022/12/03 00:28:57;;;;;;;;;;;;;;;6.08;57.27;102275.06;4956213;28;124572;-69
2022/12/03 00:31:24;;;;;;;;;;;;;;;6.08;56.95;102269.81;4960420;28;120118;-69
2022/12/03 00:33:51;;;;;;;;;;;;;;;6.08;57.02;102259.28;4947379;28;118229;-69
2022/12/03 00:36:19;;;;;;;;;;;;;;;6.09;57.30;102258.41;4960547;28;124785;-69
2022/12/03 00:38:46;;;;;;;;;;;;;;;6.12;57.10;102261.03;4954903;28;123980;-69
2022/12/03 00:41:12;;;;;;;;;;;;;;;6.13;56.94;102257.53;4957130;28;119846;-69
2022/12/03 00:43:39;;;;;;;;;;;;;;;6.14;56.94;102259.25;4938683;28;118034;-69
2022/12/03 00:46:06;;;;;;;;;;;;;;;6.13;57.35;102262.78;4940589;28;124893;-68
2022/12/03 00:48:33;;;;;;;;;;;;;;;6.13;57.38;102268.91;4961987;28;123668;-69
2022/12/03 00:51:00;;;;;;;;;;;;;;;6.14;57.44;102261.88;4955845;28;119705;-69
2022/12/03 00:53:27;;;;;;;;;;;;;;;6.13;57.28;102260.16;4949235;28;117821;-69
2022/12/03 00:55:54;;;;;;;;;;;;;;;6.13;57.17;102262.78;4956043;28;124036;-69
2022/12/03 00:58:21;;;;;;;;;;;;;;;6.15;57.19;102261.03;4958281;28;124025;-69
2022/12/03 01:00:48;;;;;;;;;;;;;;;6.16;57.13;102257.50;4946333;28;119640;-69
2022/12/03 01:03:15;;;;;;;;;;;;;;;6.16;57.34;102258.41;4955706;28;119156;-69
2022/12/03 01:05:41;;;;;;;;;;;;;;;6.16;57.03;102257.50;4944442;28;123254;-69
2022/12/03 01:08:08;;;;;;;;;;;;;;;6.19;57.19;102257.50;4966770;28;124748;-68
2022/12/03 01:10:35;;;;;;;;;;;;;;;6.19;57.09;102260.13;4961407;28;120365;-68
2022/12/03 01:13:02;;;;;;;;;;;;;;;6.19;57.39;102263.63;4964503;28;119692;-69
2022/12/03 01:15:29;;;;;;;;;;;;;;;6.19;57.19;102257.50;4964481;28;125273;-69
2022/12/03 01:17:56;;;;;;;;;;;;;;;6.21;57.47;102258.34;4952699;28;123539;-69
2022/12/03 01:20:23;;;;;;;;;;;;;;;6.20;57.14;102254.00;4958364;28;119770;-69
2022/12/03 01:22:50;;;;;;;;;;;;;;;6.23;57.24;102259.22;4958512;28;118892;-69
2022/12/03 01:25:17;;;;;;;;;;;;;;;6.22;57.24;102263.63;4962208;28;124902;-69
2022/12/03 01:27:44;;;;;;;;;;;;;;;6.23;57.23;102259.22;4962032;28;123557;-69
2022/12/03 01:30:11;;;;;;;;;;;;;;;6.22;57.01;102257.50;4948405;28;118848;-69
2022/12/03 01:32:38;;;;;;;;;;;;;;;6.22;57.04;102257.50;4957162;28;119371;-67
2022/12/03 01:35:05;;;;;;;;;;;;;;;6.22;57.58;102255.72;4958740;28;124165;-67
2022/12/03 01:37:32;;;;;;;;;;;;;;;6.24;57.21;102261.00;4964883;28;124530;-67
2022/12/03 01:39:59;;;;;;;;;;;;;;;6.24;57.33;102255.72;4960968;28;119980;-67
2022/12/03 01:42:27;;;;;;;;;;;;;;;6.24;57.03;102263.63;4957980;28;117985;-67
2022/12/03 01:44:55;;;;;;;;;;;;;;;6.23;57.19;102248.69;4934652;28;124861;-66
2022/12/03 01:47:36;;;;;;;;;;;;;;;6.23;57.39;102248.69;4959939;28;125804;-67
2022/12/03 01:50:05;;;;;;;;;;;;;;;6.20;56.96;102248.72;4963057;28;120326;-67
2022/12/03 01:52:34;;;;;;;;;;;;;;;6.18;57.14;102240.84;4959544;28;118641;-66
2022/12/03 01:55:03;;;;;;;;;;;;;;;6.19;56.97;102249.59;4957440;28;125036;-67
2022/12/03 01:57:36;;;;;;;;;;;;;;;6.18;57.13;102251.38;4941882;28;124219;-66
2022/12/03 02:00:04;;;;;;;;;;;;;;;6.19;57.42;102246.97;4959667;28;120214;-67
2022/12/03 02:02:31;;;;;;;;;;;;;;;6.19;57.28;102252.22;4955875;28;119583;-67
2022/12/03 02:04:59;;;;;;;;;;;;;;;6.20;57.06;102254.00;4956019;28;124693;-66
2022/12/03 02:07:27;;;;;;;;;;;;;;;6.19;57.37;102245.22;4948848;28;124262;-67
2022/12/03 02:09:55;;;;;;;;;;;;;;;6.20;57.27;102243.47;4955934;28;119630;-67
2022/12/03 02:12:25;;;;;;;;;;;;;;;6.20;57.03;102243.47;4938979;28;119168;-67
2022/12/03 02:14:53;;;;;;;;;;;;;;;6.19;57.11;102252.22;4957121;28;123998;-66
2022/12/03 02:17:20;;;;;;;;;;;;;;;6.20;57.07;102243.47;4955138;28;125041;-67
2022/12/03 02:19:47;;;;;;;;;;;;;;;6.22;57.35;102252.22;4966334;28;119968;-66
2022/12/03 02:22:50;;;;;;;;;;;;;;;6.22;57.04;102252.22;4942238;28;118621;-67
2022/12/03 02:25:19;;;;;;;;;;;;;;;6.20;57.23;102254.88;4893032;28;126884;-67
2022/12/03 02:27:47;;;;;;;;;;;;;;;6.17;56.91;102254.00;4925919;28;123836;-67
2022/12/03 02:30:15;;;;;;;;;;;;;;;6.14;56.94;102243.47;4937791;28;118781;-67
2022/12/03 02:32:42;;;;;;;;;;;;;;;6.13;57.33;102252.25;4963591;28;118728;-67
2022/12/03 02:35:13;;;;;;;;;;;;;;;6.11;57.15;102233.00;4960038;28;124453;-66
2022/12/03 02:37:41;;;;;;;;;;;;;;;6.10;57.23;102241.75;4962338;28;124575;-67
2022/12/03 02:40:11;;;;;;;;;;;;;;;6.09;57.22;102232.13;4951219;28;118904;-67
2022/12/03 02:42:38;;;;;;;;;;;;;;;6.08;56.97;102233.84;4956225;28;118654;-67
2022/12/03 02:45:17;;;;;;;;;;;;;;;6.06;57.09;102226.88;4952210;28;125039;-67
2022/12/03 02:47:51;;;;;;;;;;;;;;;6.04;57.23;102226.88;4960140;28;124070;-67
2022/12/03 02:50:20;;;;;;;;;;;;;;;6.03;57.28;102226.00;4959465;28;121705;-67
2022/12/03 02:52:48;;;;;;;;;;;;;;;6.03;57.12;102233.03;4961008;28;119775;-67
2022/12/03 02:55:15;;;;;;;;;;;;;;;6.01;57.04;102227.75;4958504;28;123215;-67
2022/12/03 02:57:44;;;;;;;;;;;;;;;6.01;57.11;102222.50;4956470;28;124561;-66
2022/12/03 03:00:12;;;;;;;;;;;;;;;6.00;57.10;102220.75;4966392;28;120740;-67
2022/12/03 03:02:40;;;;;;;;;;;;;;;6.01;57.33;102224.25;4960268;28;118940;-67
2022/12/03 03:05:08;;;;;;;;;;;;;;;6.00;57.25;102226.00;4939753;28;124203;-66
2022/12/03 03:07:35;;;;;;;;;;;;;;;5.99;56.97;102232.16;4958427;28;123724;-67
2022/12/03 03:10:04;;;;;;;;;;;;;;;5.98;57.31;102225.13;4959038;28;119382;-66
2022/12/03 03:12:30;;;;;;;;;;;;;;;5.98;57.08;102221.63;4956853;28;117977;-66
2022/12/03 03:15:05;;;;;;;;;;;;;;;5.97;57.12;102226.03;4957104;28;123978;-66
2022/12/03 03:17:32;;;;;;;;;;;;;;;5.98;57.50;102222.50;4959509;28;124187;-67
2022/12/03 03:19:59;;;;;;;;;;;;;;;5.99;57.23;102229.53;4964018;28;119094;-66
2022/12/03 03:22:33;;;;;;;;;;;;;;;5.98;57.04;102217.25;4962980;28;118697;-66
2022/12/03 03:25:00;;;;;;;;;;;;;;;5.99;57.35;102224.25;4943721;28;124344;-67
2022/12/03 03:27:27;;;;;;;;;;;;;;;6.00;57.13;102215.47;4958236;28;124216;-67
2022/12/03 03:29:56;;;;;;;;;;;;;;;6.01;57.03;102217.25;4945953;28;119126;-66
2022/12/03 03:32:23;;;;;;;;;;;;;;;6.01;57.09;102211.97;4956548;28;119524;-66
2022/12/03 03:34:50;;;;;;;;;;;;;;;6.01;57.11;102209.34;4956135;28;124303;-66
2022/12/03 03:37:18;;;;;;;;;;;;;;;6.02;57.39;102203.19;4959054;28;124900;-67
2022/12/03 03:39:45;;;;;;;;;;;;;;;6.03;57.36;102202.31;4957474;28;121239;-66
2022/12/03 03:42:12;;;;;;;;;;;;;;;6.02;57.04;102208.44;4959729;28;119913;-66
2022/12/03 03:44:39;;;;;;;;;;;;;;;6.01;57.15;102198.84;4938134;28;124816;-66
2022/12/03 03:47:06;;;;;;;;;;;;;;;6.01;57.46;102195.34;4957049;28;124725;-66
2022/12/03 03:49:33;;;;;;;;;;;;;;;6.01;57.13;102196.19;4953771;28;119483;-66
2022/12/03 03:52:00;;;;;;;;;;;;;;;6.00;56.92;102199.69;4957812;28;119463;-66
2022/12/03 03:54:27;;;;;;;;;;;;;;;5.98;57.04;102196.19;4936741;28;124217;-66
2022/12/03 03:56:54;;;;;;;;;;;;;;;5.96;56.95;102197.97;4950333;28;124468;-66
2022/12/03 03:59:21;;;;;;;;;;;;;;;5.96;57.28;102191.84;4956982;28;119676;-67
2022/12/03 04:01:48;;;;;;;;;;;;;;;5.95;57.37;102196.25;4963547;28;118054;-67
2022/12/03 04:04:20;;;;;;;;;;;;;;;5.95;57.37;102196.25;4955413;28;124045;-66
2022/12/03 04:06:47;;;;;;;;;;;;;;;5.94;57.23;102183.06;4957256;28;123963;-67
2022/12/03 04:09:14;;;;;;;;;;;;;;;5.93;57.05;102192.69;4947779;28;119249;-66
2022/12/03 04:14:27;;;;;;;;;;;;;;;5.93;57.36;102187.41;4952787;28;124205;-67
2022/12/03 04:16:54;;;;;;;;;;;;;;;5.91;57.29;102189.19;4959933;28;124778;-67
2022/12/03 04:19:21;;;;;;;;;;;;;;;5.92;57.31;102185.69;4958795;28;120248;-67
2022/12/03 04:24:33;;;;;;;;;;;;;;;5.91;57.11;102199.69;4962248;28;124362;-67
2022/12/03 04:29:45;;;;;;;;;;;;;;;5.91;57.26;102194.44;4956173;28;120404;-67
2022/12/03 04:37:43;;;;;;;;;;;;;;;5.89;57.28;102190.94;4950912;28;123812;-67
2022/12/03 04:42:57;;;;;;;;;;;;;;;5.92;57.58;102190.94;4938717;28;117975;-67
2022/12/03 04:45:24;;;;;;;;;;;;;;;5.94;57.50;102194.44;4956298;28;125222;-67
2022/12/03 04:47:51;;;;;;;;;;;;;;;5.93;57.30;102197.94;4939359;28;123046;-67
2022/12/03 04:50:18;;;;;;;;;;;;;;;5.93;57.14;102191.81;4960195;28;119831;-68
2022/12/03 04:52:44;;;;;;;;;;;;;;;5.92;57.13;102196.22;4955483;28;118912;-67
2022/12/03 04:55:11;;;;;;;;;;;;;;;5.89;57.31;102193.56;4947552;28;125300;-68
2022/12/03 04:57:38;;;;;;;;;;;;;;;5.88;57.18;102183.94;4951983;28;124163;-68
2022/12/03 05:00:05;;;;;;;;;;;;;;;5.85;57.27;102191.84;4960027;28;119595;-68
2022/12/03 05:02:32;;;;;;;;;;;;;;;5.84;57.54;102188.34;4957745;28;119546;-67
2022/12/03 05:04:59;;;;;;;;;;;;;;;5.84;57.25;102182.22;4938147;28;125075;-68
2022/12/03 05:07:26;;;;;;;;;;;;;;;5.83;57.39;102185.72;4961804;28;125064;-69
2022/12/03 05:09:53;;;;;;;;;;;;;;;5.80;57.24;102175.19;4928338;28;120379;-68
2022/12/03 05:12:20;;;;;;;;;;;;;;;5.80;57.52;102180.47;4941131;28;119077;-68
2022/12/03 05:14:47;;;;;;;;;;;;;;;5.79;57.47;102173.47;4953619;28;123532;-68
2022/12/03 05:17:14;;;;;;;;;;;;;;;5.78;57.52;102176.97;4939363;28;124246;-68
2022/12/03 05:22:27;;;;;;;;;;;;;;;5.78;57.60;102177.88;4950216;28;120113;-68
2022/12/03 05:24:53;;;;;;;;;;;;;;;5.76;57.48;102174.34;4959239;28;124937;-66
2022/12/03 05:27:21;;;;;;;;;;;;;;;5.76;57.61;102173.47;4956704;28;124661;-68
2022/12/03 05:29:50;;;;;;;;;;;;;;;5.76;57.48;102168.22;4952820;28;119638;-68
2022/12/03 05:32:17;;;;;;;;;;;;;;;5.76;57.53;102162.94;4937257;28;119379;-68
2022/12/03 05:34:44;;;;;;;;;;;;;;;5.77;57.86;102162.09;4950678;28;124465;-68
2022/12/03 05:37:11;;;;;;;;;;;;;;;5.78;57.76;102163.81;4957074;28;124367;-68
2022/12/03 05:39:38;;;;;;;;;;;;;;;5.76;57.47;102152.44;4958785;28;117906;-68
2022/12/03 05:44:50;;;;;;;;;;;;;;;5.76;57.52;102169.06;4955339;28;124439;-68
2022/12/03 05:47:18;;;;;;;;;;;;;;;5.76;57.65;102157.69;4956036;28;123059;-67
2022/12/03 05:49:45;;;;;;;;;;;;;;;5.76;57.62;102162.94;4958155;28;119627;-68
2022/12/03 05:52:12;;;;;;;;;;;;;;;5.77;57.75;102154.22;4965302;28;118590;-68
2022/12/03 05:54:39;;;;;;;;;;;;;;;5.79;57.68;102162.94;4953080;28;124123;-68
2022/12/03 05:57:05;;;;;;;;;;;;;;;5.79;57.53;102160.31;4961601;28;124742;-68
2022/12/03 05:59:33;;;;;;;;;;;;;;;5.80;57.61;102154.16;4961112;28;119382;-68
2022/12/03 06:02:00;;;;;;;;;;;;;;;5.82;57.65;102155.94;4961152;28;118657;-68
2022/12/03 06:04:27;;;;;;;;;;;;;;;5.83;57.57;102160.28;4953917;28;123915;-67
2022/12/03 06:06:54;;;;;;;;;;;;;;;5.83;57.68;102159.44;4949068;28;124617;-68
2022/12/03 06:09:21;;;;;;;;;;;;;;;5.82;57.52;102157.66;4955081;28;120543;-68
2022/12/03 06:11:52;;;;;;;;;;;;;;;5.80;57.71;102159.44;4959944;28;119920;-68
2022/12/03 06:14:20;;;;;;;;;;;;;;;5.78;57.47;102153.31;4959285;28;124112;-67
2022/12/03 06:16:47;;;;;;;;;;;;;;;5.78;57.87;102150.69;4957714;28;123712;-68
2022/12/03 06:19:13;;;;;;;;;;;;;;;5.77;57.71;102148.94;4962302;28;119207;-67
2022/12/03 06:21:40;;;;;;;;;;;;;;;5.77;57.53;102159.47;4955517;28;118939;-68
2022/12/03 06:24:07;;;;;;;;;;;;;;;5.77;57.77;102148.94;4959582;28;124642;-67
2022/12/03 06:26:34;;;;;;;;;;;;;;;5.75;57.78;102145.44;4956461;28;124244;-67
2022/12/03 06:29:01;;;;;;;;;;;;;;;5.76;57.70;102147.19;4962404;28;119932;-68
2022/12/03 06:31:28;;;;;;;;;;;;;;;5.76;57.74;102147.19;4954420;28;118436;-68
2022/12/03 06:33:55;;;;;;;;;;;;;;;5.76;57.83;102152.44;4955268;28;123771;-68
2022/12/03 06:36:21;;;;;;;;;;;;;;;5.77;57.59;102148.94;4955201;28;123974;-67
2022/12/03 06:38:49;;;;;;;;;;;;;;;5.75;57.92;102150.72;4957316;28;118940;-68
2022/12/03 06:41:16;;;;;;;;;;;;;;;5.76;57.71;102147.19;4954939;28;117831;-68
2022/12/03 06:43:43;;;;;;;;;;;;;;;5.77;57.55;102148.94;4940255;28;123790;-68
2022/12/03 06:46:09;;;;;;;;;;;;;;;5.77;57.90;102143.69;4941006;28;123966;-67
2022/12/03 06:48:36;;;;;;;;;;;;;;;5.77;57.62;102134.03;4958494;28;119371;-68
2022/12/03 06:51:03;;;;;;;;;;;;;;;5.79;57.75;102136.66;4958365;28;117921;-68
2022/12/03 06:53:30;;;;;;;;;;;;;;;5.79;57.92;102141.94;4959991;28;124259;-68
2022/12/03 06:55:57;;;;;;;;;;;;;;;5.81;57.91;102146.28;4963904;28;124014;-68
2022/12/03 06:58:24;;;;;;;;;;;;;;;5.80;57.77;102144.56;4965831;28;120922;-68
2022/12/03 07:00:51;;;;;;;;;;;;;;;5.78;57.70;102140.16;4960409;28;118660;-67
2022/12/03 07:03:18;;;;;;;;;;;;;;;5.79;57.78;102147.19;4946720;28;124581;-67
2022/12/03 07:05:44;;;;;;;;;;;;;;;5.81;57.55;102145.41;4958188;28;123926;-68
2022/12/03 07:08:11;;;;;;;;;;;;;;;5.81;57.60;102140.16;4954955;28;119378;-68
2022/12/03 07:10:38;;;;;;;;;;;;;;;5.80;57.55;102146.28;4959093;28;119101;-67
2022/12/03 07:13:05;;;;;;;;;;;;;;;5.80;57.54;102154.16;4964289;28;123323;-68
2022/12/03 07:15:33;;;;;;;;;;;;;;;5.81;57.56;102145.41;4943467;28;124237;-68
2022/12/03 07:18:00;;;;;;;;;;;;;;;5.82;57.59;102147.16;4943432;28;118628;-68
2022/12/03 07:20:27;;;;;;;;;;;;;;;5.82;57.54;102141.88;4964194;28;118432;-67
2022/12/03 07:22:56;;;;;;;;;;;;;;;5.82;57.51;102152.41;4962270;28;124453;-68
2022/12/03 07:25:23;;;;;;;;;;;;;;;5.82;57.43;102147.16;4959570;28;123968;-68
2022/12/03 07:27:49;;;;;;;;;;;;;;;5.82;57.33;102147.16;4950873;28;119257;-68
2022/12/03 07:30:16;;;;;;;;;;;;;;;5.81;57.78;102146.28;4958254;28;117629;-68
2022/12/03 07:32:43;;;;;;;;;;;;;;;5.81;57.83;102150.69;4948898;28;124081;-68
2022/12/03 07:35:10;;;;;;;;;;;;;;;5.82;57.66;102141.88;4952885;28;124067;-68
2022/12/03 07:37:37;;;;;;;;;;;;;;;5.82;57.35;102147.16;4957158;28;119556;-68
2022/12/03 07:40:05;;;;;;;;;;;;;;;5.81;57.28;102140.16;4955358;28;118806;-68
2022/12/03 07:42:31;;;;;;;;;;;;;;;5.80;57.40;102146.28;4949439;28;124308;-67
2022/12/03 07:44:58;;;;;;;;;;;;;;;5.79;57.45;102147.19;4931855;28;124052;-67
2022/12/03 07:47:25;;;;;;;;;;;;;;;5.79;57.74;102147.19;4931703;28;120528;-68
2022/12/03 07:49:52;;;;;;;;;;;;;;;5.79;57.40;102149.81;4954484;28;120073;-68
2022/12/03 07:52:20;;;;;;;;;;;;;;;5.78;57.42;102151.56;4957290;28;123479;-68
2022/12/03 07:54:47;;;;;;;;;;;;;;;5.78;57.36;102151.56;4961812;28;123979;-67
2022/12/03 07:57:14;;;;;;;;;;;;;;;5.76;57.81;102147.19;4955887;28;119642;-68
2022/12/03 07:59:40;;;;;;;;;;;;;;;5.77;57.43;102143.69;4959335;28;119217;-67
2022/12/03 08:02:08;;;;;;;;;;;;;;;5.76;57.69;102147.19;4938099;28;124689;-68
2022/12/03 08:04:35;;;;;;;;;;;;;;;5.77;57.43;102148.94;4963486;28;123804;-67
2022/12/03 08:07:02;;;;;;;;;;;;;;;5.77;57.37;102143.69;4960800;28;118563;-68
2022/12/03 08:09:30;;;;;;;;;;;;;;;5.77;57.24;102154.22;4962892;28;119219;-68
2022/12/03 08:11:58;;;;;;;;;;;;;;;5.76;57.24;102152.44;4961615;28;123836;-67
2022/12/03 08:14:26;;;;;;;;;;;;;;;5.75;57.62;102148.09;4952584;28;124642;-68
2022/12/03 08:16:53;;;;;;;;;;;;;;;5.74;57.49;102154.19;4957572;28;119759;-67
2022/12/03 08:19:19;;;;;;;;;;;;;;;5.73;57.49;102150.72;4955338;28;118882;-68
2022/12/03 08:21:46;;;;;;;;;;;;;;;5.73;57.31;102147.22;4943860;28;123767;-67
2022/12/03 08:24:17;;;;;;;;;;;;;;;5.73;57.35;102157.72;4960237;28;123586;-68
2022/12/03 08:26:45;;;;;;;;;;;;;;;5.71;57.27;102152.47;4958055;28;120104;-67
2022/12/03 08:29:14;;;;;;;;;;;;;;;5.73;57.37;102157.72;4956328;28;118841;-67
2022/12/03 08:31:41;;;;;;;;;;;;;;;5.73;57.47;102158.59;4958267;28;124599;-67
2022/12/03 08:34:14;;;;;;;;;;;;;;;5.72;57.36;102146.31;4954871;28;124372;-67
2022/12/03 08:36:41;;;;;;;;;;;;;;;5.73;57.32;102162.97;4957305;28;119646;-67
2022/12/03 08:39:32;;;;;;;;;;;;;;;5.74;57.18;102154.19;4955358;28;119930;-67
2022/12/03 08:44:54;;;;;;;;;;;;;;;5.72;57.20;102162.09;4953115;28;124854;-67
2022/12/03 08:47:22;;;;;;;;;;;;;;;5.72;57.09;102158.59;4954330;28;120900;-68
2022/12/03 08:49:54;;;;;;;;;;;;;;;5.71;57.33;102154.19;4954177;28;118389;-68
2022/12/03 08:52:21;;;;;;;;;;;;;;;5.71;57.16;102159.47;4953227;28;123169;-68
2022/12/03 08:54:52;;;;;;;;;;;;;;;5.69;57.21;102151.59;4948432;28;123915;-68
2022/12/03 08:57:40;;;;;;;;;;;;;;;5.69;57.51;102155.97;4958819;28;119274;-67
2022/12/03 09:00:13;;;;;;;;;;;;;;;5.68;57.07;102159.50;4958071;28;117779;-68
2022/12/03 09:02:43;;;;;;;;;;;;;;;5.65;57.51;102158.63;4954029;28;124359;-68
2022/12/03 09:05:14;;;;;;;;;;;;;;;5.64;57.32;102154.22;4952525;28;123469;-68
2022/12/03 09:07:41;;;;;;;;;;;;;;;5.64;57.31;102154.22;4957948;28;119423;-68
2022/12/03 09:10:08;;;;;;;;;;;;;;;5.65;57.35;102161.25;4958439;28;119589;-67
2022/12/03 09:12:35;;;;;;;;;;;;;;;5.64;57.25;102156.88;4940197;28;123343;-68
2022/12/03 09:15:02;;;;;;;;;;;;;;;5.66;57.14;102157.72;4944055;28;124700;-68
2022/12/03 09:17:29;;;;;;;;;;;;;;;5.68;57.21;102159.50;4958881;28;119530;-68
2022/12/03 09:19:56;;;;;;;;;;;;;;;5.69;57.64;102162.13;4958231;28;119277;-68
2022/12/03 09:22:23;;;;;;;;;;;;;;;5.71;57.24;102160.34;4966268;28;125216;-68
2022/12/03 09:24:49;;;;;;;;;;;;;;;5.71;57.25;102164.72;4965374;28;124635;-68
2022/12/03 09:27:17;;;;;;;;;;;;;;;5.72;57.24;102166.47;4951265;28;120201;-67
2022/12/03 09:29:43;;;;;;;;;;;;;;;5.72;57.34;102166.47;4959314;28;119953;-68
2022/12/03 09:32:10;;;;;;;;;;;;;;;5.71;57.38;102154.19;4937928;28;124306;-68
2022/12/03 09:34:44;;;;;;;;;;;;;;;5.72;57.20;102155.97;4936864;28;123921;-68
2022/12/03 09:37:11;;;;;;;;;;;;;;;5.71;57.26;102156.81;4939645;28;118485;-68
2022/12/03 09:39:38;;;;;;;;;;;;;;;5.73;57.61;102152.47;4951011;28;118709;-68
2022/12/03 09:42:04;;;;;;;;;;;;;;;5.74;57.18;102151.56;4952006;28;125301;-67
2022/12/03 09:44:32;;;;;;;;;;;;;;;5.74;57.15;102148.94;4959677;28;124730;-68
2022/12/03 09:47:00;;;;;;;;;;;;;;;5.75;57.33;102145.44;4939699;28;119319;-68
2022/12/03 09:49:29;;;;;;;;;;;;;;;5.73;57.17;102147.22;4950546;28;118949;-67
2022/12/03 09:51:56;;;;;;;;;;;;;;;5.74;57.17;102148.94;4950498;28;124303;-68
2022/12/03 09:54:25;;;;;;;;;;;;;;;5.74;57.41;102138.44;4950025;28;124144;-68
2022/12/03 09:56:53;;;;;;;;;;;;;;;5.75;57.57;102141.06;4951838;28;119762;-68
2022/12/03 09:59:21;;;;;;;;;;;;;;;5.77;57.42;102138.44;4947799;28;119683;-68
2022/12/03 10:01:48;;;;;;;;;;;;;;;5.78;57.21;102134.91;4935935;28;123405;-67
2022/12/03 10:04:15;;;;;;;;;;;;;;;5.77;57.48;102135.81;4953236;28;124162;-68
2022/12/03 10:06:42;;;;;;;;;;;;;;;5.77;57.51;102134.03;4947819;28;119510;-68
2022/12/03 10:09:13;;;;;;;;;;;;;;;5.76;57.47;102141.94;4949418;28;118701;-68
2022/12/03 10:11:40;;;;;;;;;;;;;;;5.77;57.43;102141.06;4949895;28;124145;-68
2022/12/03 10:14:10;;;;;;;;;;;;;;;5.79;57.58;102131.41;4935075;28;123035;-68
2022/12/03 10:16:38;;;;;;;;;;;;;;;5.81;57.27;102130.50;4960854;28;120054;-68
2022/12/03 10:19:14;;;;;;;;;;;;;;;5.82;57.38;102131.38;4963745;28;119945;-68
2022/12/03 10:21:42;;;;;;;;;;;;;;;5.83;57.23;102122.63;4960678;28;122846;-68
2022/12/03 10:24:15;;;;;;;;;;;;;;;5.82;57.33;102118.22;4964442;28;124536;-68
2022/12/03 10:26:43;;;;;;;;;;;;;;;5.80;56.88;102118.25;4943065;28;117403;-68
2022/12/03 10:29:15;;;;;;;;;;;;;;;5.79;57.28;102118.25;4955392;28;118586;-67
2022/12/03 10:31:43;;;;;;;;;;;;;;;5.79;57.00;102105.13;4982396;28;124226;-67
2022/12/03 10:34:10;;;;;;;;;;;;;;;5.80;56.95;102109.47;4970494;28;124288;-68
2022/12/03 10:36:37;;;;;;;;;;;;;;;5.81;56.75;102108.63;4964537;28;119564;-67
2022/12/03 10:39:06;;;;;;;;;;;;;;;5.82;56.89;102099.81;4959464;28;119202;-69
2022/12/03 10:41:33;;;;;;;;;;;;;;;5.81;56.80;102103.34;4956041;28;123944;-68
2022/12/03 10:44:10;;;;;;;;;;;;;;;5.81;56.71;102103.34;4963594;28;124546;-68
2022/12/03 10:46:37;;;;;;;;;;;;;;;5.81;56.60;102087.59;4963293;28;119257;-68
2022/12/03 10:49:08;;;;;;;;;;;;;;;5.80;56.72;102075.31;4962954;28;119044;-68
2022/12/03 10:51:37;;;;;;;;;;;;;;;5.80;56.68;102080.56;4967577;28;124159;-68
2022/12/03 10:54:10;;;;;;;;;;;;;;;5.81;56.61;102079.69;4971383;28;123550;-68
2022/12/03 10:56:37;;;;;;;;;;;;;;;5.80;56.28;102080.56;4966101;28;120111;-68
2022/12/03 10:59:04;;;;;;;;;;;;;;;5.79;56.21;102073.56;4941005;28;118122;-68
2022/12/03 11:01:31;;;;;;;;;;;;;;;5.79;56.02;102068.31;4953172;28;123165;-68
2022/12/03 11:04:01;;;;;;;;;;;;;;;5.77;56.29;102070.94;4941734;28;124088;-67
2022/12/03 11:06:29;;;;;;;;;;;;;;;5.76;55.96;102069.19;4965928;28;120418;-68
2022/12/03 11:08:56;;;;;;;;;;;;;;;5.75;56.35;102061.34;4954602;28;119264;-68
2022/12/03 11:11:29;;;;;;;;;;;;;;;5.76;56.23;102063.94;4957131;28;124134;-68
2022/12/03 11:13:58;;;;;;;;;;;;;;;5.79;56.61;102060.44;4957077;28;123285;-68
2022/12/03 11:16:40;;;;;;;;;;;;;;;5.84;56.40;102061.28;4939020;28;119983;-68
2022/12/03 11:19:36;;;;;;;;;;;;;;;5.86;56.56;102054.25;4969051;28;118891;-68
2022/12/03 11:22:08;;;;;;;;;;;;;;;5.87;56.21;102052.50;4938929;28;124631;-67
2022/12/03 11:24:36;;;;;;;;;;;;;;;5.86;56.51;102043.75;4968964;28;124057;-68
2022/12/03 11:27:03;;;;;;;;;;;;;;;5.88;56.35;102047.22;4970261;28;119707;-68
2022/12/03 11:29:48;;;;;;;;;;;;;;;5.91;56.65;102041.06;4955140;28;119094;-68
2022/12/03 11:32:34;;;;;;;;;;;;;;;5.92;56.06;102043.69;4948122;28;125268;-68
2022/12/03 11:35:01;;;;;;;;;;;;;;;5.91;56.16;102038.44;4951945;28;123863;-68
2022/12/03 11:37:27;;;;;;;;;;;;;;;5.90;56.01;102032.31;4949781;28;119500;-67
2022/12/03 11:39:59;;;;;;;;;;;;;;;5.91;55.94;102031.41;4954102;28;118626;-68
2022/12/03 11:42:28;;;;;;;;;;;;;;;5.90;55.93;102029.69;4930253;28;123635;-68
2022/12/03 11:45:04;;;;;;;;;;;;;;;5.90;55.99;102029.69;4939703;28;123389;-68
2022/12/03 11:47:39;;;;;;;;;;;;;;;5.89;55.96;102025.31;4947925;28;120829;-68
2022/12/03 11:50:21;;;;;;;;;;;;;;;5.89;56.36;102021.81;4938879;28;119114;-68
2022/12/03 11:52:52;;;;;;;;;;;;;;;5.88;56.20;102020.94;4914504;28;123477;-68
2022/12/03 11:55:28;;;;;;;;;;;;;;;5.88;55.82;102010.44;4956953;28;123143;-68
2022/12/03 11:57:57;;;;;;;;;;;;;;;5.86;55.72;102009.56;4967753;28;120183;-68
2022/12/03 12:00:24;;;;;;;;;;;;;;;5.86;56.26;102006.94;4940370;28;119075;-69
2022/12/03 12:02:52;;;;;;;;;;;;;;;5.87;56.24;102008.66;4945667;28;123120;-68
2022/12/03 12:05:21;;;;;;;;;;;;;;;5.91;56.12;102002.50;4932352;28;123001;-68
2022/12/03 12:07:48;;;;;;;;;;;;;;;5.93;56.00;101998.09;4954084;28;119126;-68
2022/12/03 12:10:34;;;;;;;;;;;;;;;5.95;56.28;102001.66;4951315;28;118709;-68
2022/12/03 12:13:01;;;;;;;;;;;;;;;5.92;56.18;101991.13;4958723;28;124365;-68
2022/12/03 12:15:46;;;;;;;;;;;;;;;5.93;56.36;102002.50;4963694;28;124490;-68
2022/12/03 12:18:32;;;;;;;;;;;;;;;5.93;56.44;101998.09;4960849;28;119405;-68
2022/12/03 12:21:19;;;;;;;;;;;;;;;5.94;56.22;101999.84;4958794;28;119162;-68
2022/12/03 12:23:46;;;;;;;;;;;;;;;5.92;55.64;101996.38;4920967;28;124563;-68
2022/12/03 12:26:13;;;;;;;;;;;;;;;5.89;55.67;101991.13;4956020;28;124041;-68
2022/12/03 12:28:40;;;;;;;;;;;;;;;5.89;55.78;101991.13;4954621;28;120720;-68
2022/12/03 12:31:10;;;;;;;;;;;;;;;5.88;56.08;101984.13;4928303;28;118788;-68
2022/12/03 12:33:37;;;;;;;;;;;;;;;5.88;56.18;101989.41;4945405;28;124738;-68
2022/12/03 12:36:07;;;;;;;;;;;;;;;5.88;56.28;101984.13;4946218;28;123253;-68
2022/12/03 12:38:34;;;;;;;;;;;;;;;5.89;55.92;101977.13;4961859;28;120337;-68
2022/12/03 12:41:05;;;;;;;;;;;;;;;5.87;56.00;101977.13;4963533;28;118652;-68
2022/12/03 12:43:34;;;;;;;;;;;;;;;5.86;55.66;101967.50;4955170;28;125159;-68
2022/12/03 12:46:07;;;;;;;;;;;;;;;5.85;55.60;101978.88;4957493;28;124820;-68
2022/12/03 12:48:54;;;;;;;;;;;;;;;5.82;55.69;101964.03;4963229;28;119573;-68
2022/12/03 12:51:25;;;;;;;;;;;;;;;5.85;56.07;101968.38;4960137;28;119027;-68
2022/12/03 12:53:52;;;;;;;;;;;;;;;5.86;55.82;101970.13;4940628;28;123922;-68
2022/12/03 12:56:19;;;;;;;;;;;;;;;5.88;55.94;101970.09;4978426;28;124571;-68
2022/12/03 12:58:46;;;;;;;;;;;;;;;5.87;55.93;101969.22;4951634;28;119638;-68
2022/12/03 13:01:19;;;;;;;;;;;;;;;5.88;55.84;101968.38;4968459;28;119245;-68
2022/12/03 13:03:48;;;;;;;;;;;;;;;5.89;55.89;101975.34;4961057;28;124307;-68
2022/12/03 13:06:15;;;;;;;;;;;;;;;5.87;56.12;101963.97;4979274;28;123992;-67
2022/12/03 13:08:43;;;;;;;;;;;;;;;5.87;55.79;101961.34;4967028;28;120015;-68